sensor_id;sensor_type;location;lat;lon;timestamp;pressure;altitude;pressure_sealevel;temperature;humidity
40982;BME280;26708;50.304;19.028;2022-11-20T00:00:48;97794.31;;;-3.50;56.18
40982;BME280;26708;50.304;19.028;2022-11-20T00:02:55;97923.38;;;-2.76;56.24
40982;BME280;26708;50.304;19.028;2022-11-20T00:05:04;98014.28;;;-2.21;56.45
40982;BME280;26708;50.304;19.028;2022-11-20T00:07:12;97871.66;;;-3.12;56.19
40982;BME280;26708;50.304;19.028;2022-11-20T00:09:19;97937.22;;;-2.71;56.39
40982;BME280;26708;50.304;19.028;2022-11-20T00:11:46;97858.91;;;-3.32;56.45
40982;BME280;26708;50.304;19.028;2022-11-20T00:13:58;97854.75;;;-3.30;56.62
40982;BME280;26708;50.304;19.028;2022-11-20T00:16:14;97839.59;;;-3.46;56.60
40982;BME280;26708;50.304;19.028;2022-11-20T00:18:22;97897.31;;;-3.10;56.38
40982;BME280;26708;50.304;19.028;2022-11-20T00:23:27;98016.09;;;-2.61;56.70
40982;BME280;26708;50.304;19.028;2022-11-20T00:26:12;97919.47;;;-3.11;57.02
40982;BME280;26708;50.304;19.028;2022-11-20T00:28:27;97805.94;;;-3.78;56.96
40982;BME280;26708;50.304;19.028;2022-11-20T00:30:50;98084.59;;;-2.13;57.26
40982;BME280;26708;50.304;19.028;2022-11-20T00:33:52;98020.97;;;-2.47;56.61
40982;BME280;26708;50.304;19.028;2022-11-20T00:36:20;97789.81;;;-3.77;56.09
40982;BME280;26708;50.304;19.028;2022-11-20T00:38:27;97951.88;;;-2.89;56.20
40982;BME280;26708;50.304;19.028;2022-11-20T00:40:33;98074.28;;;-2.15;56.43
40982;BME280;26708;50.304;19.028;2022-11-20T00:42:40;97934.63;;;-2.93;56.77
40982;BME280;26708;50.304;19.028;2022-11-20T00:44:45;97890.91;;;-3.21;57.09
40982;BME280;26708;50.304;19.028;2022-11-20T00:46:50;98022.88;;;-2.41;57.27
40982;BME280;26708;50.304;19.028;2022-11-20T00:48:58;97938.16;;;-2.91;57.07
40982;BME280;26708;50.304;19.028;2022-11-20T00:51:04;98078.75;;;-2.09;57.02
40982;BME280;26708;50.304;19.028;2022-11-20T00:53:14;97995.41;;;-2.67;57.06
40982;BME280;26708;50.304;19.028;2022-11-20T00:55:19;98064.28;;;-2.09;57.37
40982;BME280;26708;50.304;19.028;2022-11-20T00:57:25;97766.81;;;-3.77;57.21
40982;BME280;26708;50.304;19.028;2022-11-20T00:59:30;97957.59;;;-2.74;57.30
40982;BME280;26708;50.304;19.028;2022-11-20T01:01:37;98062.34;;;-2.14;57.06
40982;BME280;26708;50.304;19.028;2022-11-20T01:03:43;97918.19;;;-3.00;57.05
40982;BME280;26708;50.304;19.028;2022-11-20T01:05:50;98000.34;;;-2.72;57.08
40982;BME280;26708;50.304;19.028;2022-11-20T01:07:56;97920.97;;;-3.16;57.23
40982;BME280;26708;50.304;19.028;2022-11-20T01:12:41;97845.25;;;-3.75;57.54
40982;BME280;26708;50.304;19.028;2022-11-20T01:15:08;98015.91;;;-2.66;57.62
40982;BME280;26708;50.304;19.028;2022-11-20T01:17:13;97783.47;;;-4.07;57.21
40982;BME280;26708;50.304;19.028;2022-11-20T01:19:22;97992.59;;;-2.73;57.57
40982;BME280;26708;50.304;19.028;2022-11-20T01:21:31;97892.91;;;-3.35;57.55
40982;BME280;26708;50.304;19.028;2022-11-20T01:23:39;98003.94;;;-2.67;56.87
40982;BME280;26708;50.304;19.028;2022-11-20T01:28:12;97856.28;;;-3.55;56.58
40982;BME280;26708;50.304;19.028;2022-11-20T01:30:17;97877.19;;;-3.43;56.61
40982;BME280;26708;50.304;19.028;2022-11-20T01:32:24;97855.75;;;-3.47;56.74
40982;BME280;26708;50.304;19.028;2022-11-20T01:34:30;97802.56;;;-3.77;56.79
40982;BME280;26708;50.304;19.028;2022-11-20T01:36:37;97944.06;;;-2.92;56.81
40982;BME280;26708;50.304;19.028;2022-11-20T01:38:42;97818.44;;;-3.64;56.83
40982;BME280;26708;50.304;19.028;2022-11-20T01:40:54;97862.03;;;-3.39;57.03
40982;BME280;26708;50.304;19.028;2022-11-20T01:43:17;97875.16;;;-3.32;56.76
40982;BME280;26708;50.304;19.028;2022-11-20T01:48:14;97735.38;;;-3.97;57.02
40982;BME280;26708;50.304;19.028;2022-11-20T01:50:24;98016.34;;;-2.33;56.94
40982;BME280;26708;50.304;19.028;2022-11-20T01:52:35;97746.06;;;-3.85;56.22
40982;BME280;26708;50.304;19.028;2022-11-20T01:54:50;97872.88;;;-3.24;56.11
40982;BME280;26708;50.304;19.028;2022-11-20T01:57:00;98004.84;;;-2.44;55.91
40982;BME280;26708;50.304;19.028;2022-11-20T01:59:10;98015.19;;;-2.41;55.93
40982;BME280;26708;50.304;19.028;2022-11-20T02:01:18;97830.84;;;-3.52;55.71
40982;BME280;26708;50.304;19.028;2022-11-20T02:03:23;98026.50;;;-2.36;55.74
40982;BME280;26708;50.304;19.028;2022-11-20T02:05:34;97914.88;;;-2.97;55.76
40982;BME280;26708;50.304;19.028;2022-11-20T02:07:41;97822.72;;;-3.64;55.63
40982;BME280;26708;50.304;19.028;2022-11-20T02:09:45;97829.38;;;-3.46;56.12
40982;BME280;26708;50.304;19.028;2022-11-20T02:11:51;97709.06;;;-4.16;56.30
40982;BME280;26708;50.304;19.028;2022-11-20T02:13:57;97812.66;;;-3.60;56.32
40982;BME280;26708;50.304;19.028;2022-11-20T02:16:03;97871.69;;;-3.32;56.53
40982;BME280;26708;50.304;19.028;2022-11-20T02:18:10;97908.19;;;-3.16;56.32
40982;BME280;26708;50.304;19.028;2022-11-20T02:20:17;98040.72;;;-2.43;56.28
40982;BME280;26708;50.304;19.028;2022-11-20T02:22:30;97920.97;;;-3.16;56.42
40982;BME280;26708;50.304;19.028;2022-11-20T02:24:44;98037.81;;;-2.52;56.43
40982;BME280;26708;50.304;19.028;2022-11-20T02:26:53;97865.06;;;-3.69;56.37
40982;BME280;26708;50.304;19.028;2022-11-20T02:29:02;98051.31;;;-2.56;56.46
40982;BME280;26708;50.304;19.028;2022-11-20T02:31:07;98045.97;;;-2.62;56.68
40982;BME280;26708;50.304;19.028;2022-11-20T02:33:12;98023.88;;;-2.80;56.66
40982;BME280;26708;50.304;19.028;2022-11-20T02:38:00;98058.50;;;-2.68;56.85
40982;BME280;26708;50.304;19.028;2022-11-20T02:40:10;98066.13;;;-2.69;56.74
40982;BME280;26708;50.304;19.028;2022-11-20T02:42:15;97862.34;;;-3.94;56.94
40982;BME280;26708;50.304;19.028;2022-11-20T02:44:20;98050.75;;;-2.69;57.06
40982;BME280;26708;50.304;19.028;2022-11-20T02:46:24;97872.22;;;-3.81;57.17
40982;BME280;26708;50.304;19.028;2022-11-20T02:48:29;98031.31;;;-2.86;56.82
40982;BME280;26708;50.304;19.028;2022-11-20T02:50:36;98057.59;;;-2.70;56.93
40982;BME280;26708;50.304;19.028;2022-11-20T02:52:42;97905.25;;;-3.65;56.97
40982;BME280;26708;50.304;19.028;2022-11-20T02:54:47;97964.00;;;-3.26;57.10
40982;BME280;26708;50.304;19.028;2022-11-20T02:56:54;98059.13;;;-2.73;57.24
40982;BME280;26708;50.304;19.028;2022-11-20T02:58:59;97914.09;;;-3.57;57.30
40982;BME280;26708;50.304;19.028;2022-11-20T03:01:03;98047.19;;;-2.73;57.19
40982;BME280;26708;50.304;19.028;2022-11-20T03:03:09;97937.81;;;-3.41;57.31
40982;BME280;26708;50.304;19.028;2022-11-20T03:05:13;98053.22;;;-2.72;57.34
40982;BME280;26708;50.304;19.028;2022-11-20T03:07:18;98055.88;;;-2.69;57.49
40982;BME280;26708;50.304;19.028;2022-11-20T03:09:23;97879.78;;;-3.84;56.51
40982;BME280;26708;50.304;19.028;2022-11-20T03:11:28;98049.72;;;-2.74;56.32
40982;BME280;26708;50.304;19.028;2022-11-20T03:13:35;97917.38;;;-3.61;56.42
40982;BME280;26708;50.304;19.028;2022-11-20T03:15:40;98003.53;;;-2.98;56.72
40982;BME280;26708;50.304;19.028;2022-11-20T03:17:45;97906.63;;;-3.73;56.96
40982;BME280;26708;50.304;19.028;2022-11-20T03:19:49;97899.16;;;-3.69;57.24
40982;BME280;26708;50.304;19.028;2022-11-20T03:21:55;97896.00;;;-3.84;57.65
40982;BME280;26708;50.304;19.028;2022-11-20T03:24:02;98015.25;;;-3.23;57.83
40982;BME280;26708;50.304;19.028;2022-11-20T03:26:08;98028.31;;;-3.17;58.26
40982;BME280;26708;50.304;19.028;2022-11-20T03:28:15;97805.66;;;-4.46;58.28
40982;BME280;26708;50.304;19.028;2022-11-20T03:30:22;97948.50;;;-3.70;58.31
40982;BME280;26708;50.304;19.028;2022-11-20T03:32:26;98057.06;;;-3.02;58.19
40982;BME280;26708;50.304;19.028;2022-11-20T03:34:32;98041.63;;;-3.05;57.92
40982;BME280;26708;50.304;19.028;2022-11-20T03:36:37;98036.44;;;-3.07;58.01
40982;BME280;26708;50.304;19.028;2022-11-20T03:38:42;97873.13;;;-4.00;58.00
40982;BME280;26708;50.304;19.028;2022-11-20T03:40:47;97954.44;;;-3.50;58.29
40982;BME280;26708;50.304;19.028;2022-11-20T03:42:52;97861.53;;;-4.12;58.38
40982;BME280;26708;50.304;19.028;2022-11-20T03:44:56;97942.00;;;-3.63;58.12
40982;BME280;26708;50.304;19.028;2022-11-20T03:47:06;97839.34;;;-4.15;57.88
40982;BME280;26708;50.304;19.028;2022-11-20T03:49:13;97855.34;;;-3.98;57.86
40982;BME280;26708;50.304;19.028;2022-11-20T03:51:21;97899.50;;;-3.80;57.93
40982;BME280;26708;50.304;19.028;2022-11-20T03:53:28;97777.38;;;-4.50;57.58
40982;BME280;26708;50.304;19.028;2022-11-20T03:57:57;97838.13;;;-4.23;57.51
40982;BME280;26708;50.304;19.028;2022-11-20T04:00:04;98043.34;;;-3.04;57.41
40982;BME280;26708;50.304;19.028;2022-11-20T04:02:12;97844.34;;;-4.37;57.55
40982;BME280;26708;50.304;19.028;2022-11-20T04:04:17;98027.13;;;-3.25;57.87
40982;BME280;26708;50.304;19.028;2022-11-20T04:06:24;98065.84;;;-3.16;57.76
40982;BME280;26708;50.304;19.028;2022-11-20T04:08:29;97959.97;;;-3.81;57.99
40982;BME280;26708;50.304;19.028;2022-11-20T04:10:34;98029.03;;;-3.40;58.02
40982;BME280;26708;50.304;19.028;2022-11-20T04:12:39;98047.47;;;-3.28;58.18
40982;BME280;26708;50.304;19.028;2022-11-20T04:14:44;98045.44;;;-3.35;58.28
40982;BME280;26708;50.304;19.028;2022-11-20T04:16:48;97950.84;;;-3.95;58.44
40982;BME280;26708;50.304;19.028;2022-11-20T04:18:57;97899.41;;;-4.23;58.58
40982;BME280;26708;50.304;19.028;2022-11-20T04:21:05;97870.91;;;-4.32;58.67
40982;BME280;26708;50.304;19.028;2022-11-20T04:23:10;98043.19;;;-3.28;58.70
40982;BME280;26708;50.304;19.028;2022-11-20T04:25:15;97823.72;;;-4.41;58.66
40982;BME280;26708;50.304;19.028;2022-11-20T04:27:20;98016.69;;;-3.30;58.90
40982;BME280;26708;50.304;19.028;2022-11-20T04:29:24;97967.09;;;-3.53;58.72
40982;BME280;26708;50.304;19.028;2022-11-20T04:31:32;97969.97;;;-3.46;58.81
40982;BME280;26708;50.304;19.028;2022-11-20T04:33:38;97956.16;;;-3.51;58.92
40982;BME280;26708;50.304;19.028;2022-11-20T04:35:47;97883.69;;;-3.92;58.67
40982;BME280;26708;50.304;19.028;2022-11-20T04:37:53;97775.91;;;-4.45;58.52
40982;BME280;26708;50.304;19.028;2022-11-20T04:42:17;97782.38;;;-4.33;58.45
40982;BME280;26708;50.304;19.028;2022-11-20T04:44:35;97837.75;;;-4.11;57.58
40982;BME280;26708;50.304;19.028;2022-11-20T04:46:41;97831.09;;;-4.08;57.24
40982;BME280;26708;50.304;19.028;2022-11-20T04:48:47;97832.09;;;-4.04;57.05
40982;BME280;26708;50.304;19.028;2022-11-20T04:50:57;97761.88;;;-4.55;56.96
40982;BME280;26708;50.304;19.028;2022-11-20T04:53:02;97943.75;;;-3.42;56.76
40982;BME280;26708;50.304;19.028;2022-11-20T04:55:07;97827.78;;;-4.05;56.54
40982;BME280;26708;50.304;19.028;2022-11-20T04:57:16;97676.03;;;-4.94;56.33
40982;BME280;26708;50.304;19.028;2022-11-20T04:59:39;97930.78;;;-3.46;56.56
40982;BME280;26708;50.304;19.028;2022-11-20T05:01:44;97818.03;;;-4.15;56.67
40982;BME280;26708;50.304;19.028;2022-11-20T05:03:50;97948.78;;;-3.43;57.12
40982;BME280;26708;50.304;19.028;2022-11-20T05:06:00;97748.56;;;-4.48;57.33
40982;BME280;26708;50.304;19.028;2022-11-20T05:08:05;97785.47;;;-4.21;56.47
40982;BME280;26708;50.304;19.028;2022-11-20T05:10:10;97783.94;;;-4.36;56.33
40982;BME280;26708;50.304;19.028;2022-11-20T05:12:15;97802.50;;;-4.20;56.04
40982;BME280;26708;50.304;19.028;2022-11-20T05:14:20;97802.81;;;-4.12;56.07
40982;BME280;26708;50.304;19.028;2022-11-20T05:16:30;98001.50;;;-3.06;56.02
40982;BME280;26708;50.304;19.028;2022-11-20T05:18:36;97872.41;;;-3.77;56.12
40982;BME280;26708;50.304;19.028;2022-11-20T05:20:41;97926.38;;;-3.29;56.27
40982;BME280;26708;50.304;19.028;2022-11-20T05:22:49;97955.50;;;-3.05;56.44
40982;BME280;26708;50.304;19.028;2022-11-20T05:24:53;97943.06;;;-3.18;56.07
40982;BME280;26708;50.304;19.028;2022-11-20T05:26:58;97894.59;;;-3.35;55.70
40982;BME280;26708;50.304;19.028;2022-11-20T05:29:03;97938.78;;;-3.17;55.63
40982;BME280;26708;50.304;19.028;2022-11-20T05:31:10;97913.78;;;-3.24;55.67
40982;BME280;26708;50.304;19.028;2022-11-20T05:33:16;97839.81;;;-3.62;55.61
40982;BME280;26708;50.304;19.028;2022-11-20T05:35:22;97923.44;;;-3.17;55.60
40982;BME280;26708;50.304;19.028;2022-11-20T05:37:27;97883.69;;;-3.51;55.55
40982;BME280;26708;50.304;19.028;2022-11-20T05:39:34;97640.59;;;-4.88;55.50
40982;BME280;26708;50.304;19.028;2022-11-20T05:41:39;97840.91;;;-3.77;55.52
40982;BME280;26708;50.304;19.028;2022-11-20T05:43:45;97976.22;;;-2.99;55.44
40982;BME280;26708;50.304;19.028;2022-11-20T05:45:54;97753.00;;;-4.44;55.47
40982;BME280;26708;50.304;19.028;2022-11-20T05:48:00;97972.41;;;-3.08;55.41
40982;BME280;26708;50.304;19.028;2022-11-20T05:50:05;97962.00;;;-3.13;55.54
40982;BME280;26708;50.304;19.028;2022-11-20T05:52:10;97827.16;;;-4.00;55.56
40982;BME280;26708;50.304;19.028;2022-11-20T05:54:15;97881.63;;;-3.80;55.79
40982;BME280;26708;50.304;19.028;2022-11-20T05:56:23;97918.63;;;-3.52;55.87
40982;BME280;26708;50.304;19.028;2022-11-20T05:58:28;97939.56;;;-3.40;55.92
40982;BME280;26708;50.304;19.028;2022-11-20T06:01:19;97975.41;;;-3.18;56.40
40982;BME280;26708;50.304;19.028;2022-11-20T06:04:23;97827.88;;;-4.04;56.61
40982;BME280;26708;50.304;19.028;2022-11-20T06:06:46;97802.81;;;-4.12;56.65
40982;BME280;26708;50.304;19.028;2022-11-20T06:08:50;97743.00;;;-4.58;56.64
40982;BME280;26708;50.304;19.028;2022-11-20T06:10:55;97949.41;;;-3.29;56.84
40982;BME280;26708;50.304;19.028;2022-11-20T06:13:03;97720.13;;;-4.57;56.32
40982;BME280;26708;50.304;19.028;2022-11-20T06:15:09;97868.38;;;-3.72;55.92
40982;BME280;26708;50.304;19.028;2022-11-20T06:17:13;97951.41;;;-3.22;55.90
40982;BME280;26708;50.304;19.028;2022-11-20T06:19:19;97960.19;;;-3.15;56.33
40982;BME280;26708;50.304;19.028;2022-11-20T06:21:24;97985.34;;;-3.05;56.41
40982;BME280;26708;50.304;19.028;2022-11-20T06:23:29;97920.84;;;-3.39;56.43
40982;BME280;26708;50.304;19.028;2022-11-20T06:25:37;97853.34;;;-3.85;56.38
40982;BME280;26708;50.304;19.028;2022-11-20T06:27:42;97929.31;;;-3.40;56.39
40982;BME280;26708;50.304;19.028;2022-11-20T06:29:49;97901.28;;;-3.59;56.28
40982;BME280;26708;50.304;19.028;2022-11-20T06:31:55;97652.41;;;-5.10;55.88
40982;BME280;26708;50.304;19.028;2022-11-20T06:34:02;97750.31;;;-4.47;56.04
40982;BME280;26708;50.304;19.028;2022-11-20T06:36:10;97820.03;;;-4.08;56.44
40982;BME280;26708;50.304;19.028;2022-11-20T06:38:19;97946.56;;;-3.36;56.31
40982;BME280;26708;50.304;19.028;2022-11-20T06:40:24;97946.41;;;-3.39;56.35
40982;BME280;26708;50.304;19.028;2022-11-20T06:42:28;97892.19;;;-3.73;56.53
40982;BME280;26708;50.304;19.028;2022-11-20T06:44:33;97740.03;;;-4.69;56.80
40982;BME280;26708;50.304;19.028;2022-11-20T06:46:59;97963.53;;;-3.18;56.97
40982;BME280;26708;50.304;19.028;2022-11-20T06:49:57;97917.38;;;-3.41;56.71
40982;BME280;26708;50.304;19.028;2022-11-20T06:52:02;97843.47;;;-3.77;56.78
40982;BME280;26708;50.304;19.028;2022-11-20T06:54:07;97977.03;;;-3.00;56.77
40982;BME280;26708;50.304;19.028;2022-11-20T06:56:12;97920.16;;;-3.15;56.69
40982;BME280;26708;50.304;19.028;2022-11-20T06:58:18;97756.44;;;-4.02;56.58
40982;BME280;26708;50.304;19.028;2022-11-20T07:03:18;97794.81;;;-3.58;56.61
40982;BME280;26708;50.304;19.028;2022-11-20T07:06:16;97802.91;;;-3.48;56.61
40982;BME280;26708;50.304;19.028;2022-11-20T07:08:21;97651.28;;;-4.35;56.53
40982;BME280;26708;50.304;19.028;2022-11-20T07:10:27;97699.47;;;-4.00;56.53
40982;BME280;26708;50.304;19.028;2022-11-20T07:12:49;97672.44;;;-4.17;56.73
40982;BME280;26708;50.304;19.028;2022-11-20T07:14:58;97784.31;;;-3.44;57.01
40982;BME280;26708;50.304;19.028;2022-11-20T07:17:04;97795.47;;;-3.42;57.40
40982;BME280;26708;50.304;19.028;2022-11-20T07:19:12;97784.31;;;-3.44;56.61
40982;BME280;26708;50.304;19.028;2022-11-20T07:21:17;97790.78;;;-3.32;56.34
40982;BME280;26708;50.304;19.028;2022-11-20T07:23:22;97717.34;;;-3.79;56.45
40982;BME280;26708;50.304;19.028;2022-11-20T07:25:28;97682.91;;;-3.89;56.53
40982;BME280;26708;50.304;19.028;2022-11-20T07:27:33;97871.44;;;-2.96;56.23
40982;BME280;26708;50.304;19.028;2022-11-20T07:29:38;97760.78;;;-3.57;56.17
40982;BME280;26708;50.304;19.028;2022-11-20T07:31:43;97783.84;;;-3.34;56.30
40982;BME280;26708;50.304;19.028;2022-11-20T07:33:48;97866.53;;;-2.91;56.19
40982;BME280;26708;50.304;19.028;2022-11-20T07:35:54;97771.75;;;-3.38;56.37
40982;BME280;26708;50.304;19.028;2022-11-20T07:38:04;97772.72;;;-3.36;56.19
40982;BME280;26708;50.304;19.028;2022-11-20T07:42:27;97868.75;;;-2.55;55.76
40982;BME280;26708;50.304;19.028;2022-11-20T07:44:32;97778.41;;;-2.98;55.88
40982;BME280;26708;50.304;19.028;2022-11-20T07:46:37;97759.28;;;-3.07;55.82
40982;BME280;26708;50.304;19.028;2022-11-20T07:48:42;97797.88;;;-2.79;55.46
40982;BME280;26708;50.304;19.028;2022-11-20T07:50:48;97770.69;;;-2.99;55.65
40982;BME280;26708;50.304;19.028;2022-11-20T07:53:03;97885.97;;;-2.27;55.59
40982;BME280;26708;50.304;19.028;2022-11-20T07:55:18;97940.03;;;-1.96;55.65
40982;BME280;26708;50.304;19.028;2022-11-20T07:57:25;97788.22;;;-2.86;55.63
40982;BME280;26708;50.304;19.028;2022-11-20T07:59:30;97679.78;;;-3.60;55.71
40982;BME280;26708;50.304;19.028;2022-11-20T08:01:54;97719.84;;;-3.37;55.83
40982;BME280;26708;50.304;19.028;2022-11-20T08:04:07;97967.50;;;-2.16;55.90
40982;BME280;26708;50.304;19.028;2022-11-20T08:06:13;97654.50;;;-3.96;56.43
40982;BME280;26708;50.304;19.028;2022-11-20T08:08:24;97769.50;;;-3.52;56.80
40982;BME280;26708;50.304;19.028;2022-11-20T08:13:09;97800.34;;;-3.26;57.31
40982;BME280;26708;50.304;19.028;2022-11-20T08:15:27;97838.66;;;-3.06;57.59
40982;BME280;26708;50.304;19.028;2022-11-20T08:17:37;97968.16;;;-2.21;57.50
40982;BME280;26708;50.304;19.028;2022-11-20T08:19:42;97705.75;;;-3.71;57.82
40982;BME280;26708;50.304;19.028;2022-11-20T08:21:56;97791.53;;;-3.12;58.12
40982;BME280;26708;50.304;19.028;2022-11-20T08:24:09;97961.97;;;-2.04;58.21
40982;BME280;26708;50.304;19.028;2022-11-20T08:28:38;97799.78;;;-2.97;58.20
40982;BME280;26708;50.304;19.028;2022-11-20T08:30:44;97831.53;;;-2.69;58.31
40982;BME280;26708;50.304;19.028;2022-11-20T08:32:48;97784.25;;;-2.78;58.47
40982;BME280;26708;50.304;19.028;2022-11-20T08:34:53;97855.94;;;-2.31;58.53
40982;BME280;26708;50.304;19.028;2022-11-20T08:39:50;97696.31;;;-3.05;58.14
40982;BME280;26708;50.304;19.028;2022-11-20T08:41:55;97834.75;;;-2.27;58.16
40982;BME280;26708;50.304;19.028;2022-11-20T08:44:02;97803.34;;;-2.45;58.45
40982;BME280;26708;50.304;19.028;2022-11-20T08:46:07;97928.22;;;-1.68;58.51
40982;BME280;26708;50.304;19.028;2022-11-20T08:59:42;97945.16;;;-1.23;58.80
40982;BME280;26708;50.304;19.028;2022-11-20T09:01:48;97909.72;;;-1.34;58.75
40982;BME280;26708;50.304;19.028;2022-11-20T09:03:55;97962.13;;;-1.01;59.00
40982;BME280;26708;50.304;19.028;2022-11-20T09:06:02;97971.63;;;-0.99;58.97
40982;BME280;26708;50.304;19.028;2022-11-20T09:08:29;97739.06;;;-2.29;59.10
40982;BME280;26708;50.304;19.028;2022-11-20T09:10:35;97966.47;;;-0.99;59.14
40982;BME280;26708;50.304;19.028;2022-11-20T09:12:40;97702.50;;;-2.50;59.37
40982;BME280;26708;50.304;19.028;2022-11-20T09:14:48;97692.50;;;-2.43;59.81
40982;BME280;26708;50.304;19.028;2022-11-20T09:16:56;97928.19;;;-0.91;59.58
40982;BME280;26708;50.304;19.028;2022-11-20T09:19:01;97832.66;;;-1.37;59.36
40982;BME280;26708;50.304;19.028;2022-11-20T09:21:11;97845.09;;;-1.23;59.15
40982;BME280;26708;50.304;19.028;2022-11-20T09:23:17;97733.59;;;-1.60;59.03
40982;BME280;26708;50.304;19.028;2022-11-20T09:25:22;97808.81;;;-1.07;58.87
40982;BME280;26708;50.304;19.028;2022-11-20T09:27:29;97822.94;;;-0.93;58.66
40982;BME280;26708;50.304;19.028;2022-11-20T09:29:33;97777.69;;;-1.17;58.48
40982;BME280;26708;50.304;19.028;2022-11-20T09:31:40;97850.22;;;-0.67;58.57
40982;BME280;26708;50.304;19.028;2022-11-20T09:33:45;97784.97;;;-1.03;58.46
40982;BME280;26708;50.304;19.028;2022-11-20T09:35:50;97955.16;;;0.07;58.62
40982;BME280;26708;50.304;19.028;2022-11-20T09:37:55;97911.50;;;-0.21;58.58
40982;BME280;26708;50.304;19.028;2022-11-20T09:40:02;97684.75;;;-1.37;58.49
40982;BME280;26708;50.304;19.028;2022-11-20T09:42:31;97652.94;;;-1.43;58.39
40982;BME280;26708;50.304;19.028;2022-11-20T09:44:53;97796.19;;;-0.40;58.21
40982;BME280;26708;50.304;19.028;2022-11-20T09:47:59;97961.38;;;0.45;58.50
40982;BME280;26708;50.304;19.028;2022-11-20T09:51:42;97934.19;;;0.55;58.64
40982;BME280;26708;50.304;19.028;2022-11-20T09:57:21;97631.88;;;-1.02;58.45
40982;BME280;26708;50.304;19.028;2022-11-20T09:59:38;97919.31;;;0.77;58.65
40982;BME280;26708;50.304;19.028;2022-11-20T10:02:00;97630.25;;;-0.99;58.45
40982;BME280;26708;50.304;19.028;2022-11-20T10:04:44;97860.41;;;0.54;58.35
40982;BME280;26708;50.304;19.028;2022-11-20T10:07:02;97679.41;;;-0.51;58.25
40982;BME280;26708;50.304;19.028;2022-11-20T10:09:31;97773.03;;;0.23;58.09
40982;BME280;26708;50.304;19.028;2022-11-20T10:12:36;97888.13;;;0.99;57.71
40982;BME280;26708;50.304;19.028;2022-11-20T10:15:11;97724.69;;;0.10;57.63
40982;BME280;26708;50.304;19.028;2022-11-20T10:21:08;97707.41;;;0.05;57.63
40982;BME280;26708;50.304;19.028;2022-11-20T10:23:53;97777.94;;;0.49;58.01
40982;BME280;26708;50.304;19.028;2022-11-20T10:26:17;97807.28;;;0.56;58.56
40982;BME280;26708;50.304;19.028;2022-11-20T10:28:43;97859.44;;;0.84;58.15
40982;BME280;26708;50.304;19.028;2022-11-20T10:31:01;97903.03;;;1.12;58.39
40982;BME280;26708;50.304;19.028;2022-11-20T10:33:15;97884.75;;;1.02;58.75
40982;BME280;26708;50.304;19.028;2022-11-20T10:35:27;97735.97;;;0.17;59.02
40982;BME280;26708;50.304;19.028;2022-11-20T10:37:42;97892.94;;;1.21;59.32
40982;BME280;26708;50.304;19.028;2022-11-20T10:39:55;97877.44;;;1.20;59.25
40982;BME280;26708;50.304;19.028;2022-11-20T10:42:11;97874.31;;;1.34;58.63
40982;BME280;26708;50.304;19.028;2022-11-20T10:44:20;97778.63;;;0.79;58.04
40982;BME280;26708;50.304;19.028;2022-11-20T10:46:43;97731.84;;;0.58;57.22
40982;BME280;26708;50.304;19.028;2022-11-20T10:48:49;97871.25;;;1.52;56.21
40982;BME280;26708;50.304;19.028;2022-11-20T10:51:11;97625.41;;;0.17;56.19
40982;BME280;26708;50.304;19.028;2022-11-20T10:53:37;97753.81;;;0.83;56.05
40982;BME280;26708;50.304;19.028;2022-11-20T10:55:54;97836.81;;;1.48;55.41
40982;BME280;26708;50.304;19.028;2022-11-20T10:58:09;97867.34;;;1.70;55.34
40982;BME280;26708;50.304;19.028;2022-11-20T11:00:15;97653.72;;;0.55;55.13
40982;BME280;26708;50.304;19.028;2022-11-20T11:02:22;97810.09;;;1.45;54.89
40982;BME280;26708;50.304;19.028;2022-11-20T11:04:33;97836.25;;;1.61;55.08
40982;BME280;26708;50.304;19.028;2022-11-20T11:06:46;97741.31;;;0.99;54.92
40982;BME280;26708;50.304;19.028;2022-11-20T11:08:59;97661.75;;;0.70;54.76
40982;BME280;26708;50.304;19.028;2022-11-20T11:11:20;97806.91;;;1.56;54.67
40982;BME280;26708;50.304;19.028;2022-11-20T11:13:28;97678.16;;;0.75;54.40
40982;BME280;26708;50.304;19.028;2022-11-20T11:15:39;97859.25;;;1.94;54.42
40982;BME280;26708;50.304;19.028;2022-11-20T11:17:47;97827.13;;;1.78;54.62
40982;BME280;26708;50.304;19.028;2022-11-20T11:20:04;97852.44;;;1.99;54.98
40982;BME280;26708;50.304;19.028;2022-11-20T11:22:17;97822.91;;;1.82;55.42
40982;BME280;26708;50.304;19.028;2022-11-20T11:24:26;97849.06;;;2.01;55.58
40982;BME280;26708;50.304;19.028;2022-11-20T11:26:31;97846.53;;;2.03;55.67
40982;BME280;26708;50.304;19.028;2022-11-20T11:28:36;97840.44;;;1.99;55.79
40982;BME280;26708;50.304;19.028;2022-11-20T11:30:43;97709.09;;;1.18;56.05
40982;BME280;26708;50.304;19.028;2022-11-20T11:32:51;97748.88;;;1.32;56.39
40982;BME280;26708;50.304;19.028;2022-11-20T11:35:20;97671.56;;;0.89;56.67
40982;BME280;26708;50.304;19.028;2022-11-20T11:37:33;97849.78;;;1.94;56.88
40982;BME280;26708;50.304;19.028;2022-11-20T11:39:43;97845.03;;;1.71;57.02
40982;BME280;26708;50.304;19.028;2022-11-20T11:41:49;97873.84;;;1.93;57.19
40982;BME280;26708;50.304;19.028;2022-11-20T11:43:56;97855.75;;;1.92;57.43
40982;BME280;26708;50.304;19.028;2022-11-20T11:46:32;97846.31;;;1.92;57.64
40982;BME280;26708;50.304;19.028;2022-11-20T11:48:37;97845.47;;;1.93;57.79
40982;BME280;26708;50.304;19.028;2022-11-20T11:50:49;97711.72;;;1.19;57.74
40982;BME280;26708;50.304;19.028;2022-11-20T11:53:03;97809.03;;;1.77;57.63
40982;BME280;26708;50.304;19.028;2022-11-20T11:55:26;97805.69;;;1.81;57.47
40982;BME280;26708;50.304;19.028;2022-11-20T11:57:43;97566.91;;;0.46;57.35
40982;BME280;26708;50.304;19.028;2022-11-20T12:00:02;97780.28;;;1.57;57.47
40982;BME280;26708;50.304;19.028;2022-11-20T12:02:27;97813.63;;;1.93;57.50
40982;BME280;26708;50.304;19.028;2022-11-20T12:04:43;97631.91;;;0.79;57.19
40982;BME280;26708;50.304;19.028;2022-11-20T12:06:57;97691.06;;;1.18;57.41
40982;BME280;26708;50.304;19.028;2022-11-20T12:09:10;97792.63;;;1.73;57.47
40982;BME280;26708;50.304;19.028;2022-11-20T12:11:24;97825.69;;;1.92;57.15
40982;BME280;26708;50.304;19.028;2022-11-20T12:13:46;97770.06;;;1.60;57.13
40982;BME280;26708;50.304;19.028;2022-11-20T12:15:54;97771.66;;;1.55;56.76